Town Center, New Jersey
Current Conditions -  °F | °C
As of 12:53 PM on Monday 24 Nov 2014 (Local Time) from KCDW Reporting Station
Broken Clouds Broken Clouds  
Wind Chill: 71°   Ceiling: 3800
Heat Index: 71°   Visibility: 10mi
Dew Point: 57°   Wind: 14mph
Humidity: 61%   Direction: 200°SSW
Pressure: 29.58"   Gusts: 23mph
Location:  40.7895°N, 74.2629°W
Report Text: KCDW 241753Z 20012G20KT 10SM FEW029 BKN038 22/14 A2958 RMK AO2 SLP022 60002 T02170139 10217 20167 56020
Loading
Personal Weather Stations






























Interactive Weather Map New forecast layout! Learn more

10-Day Weather Forecast

Advertisements
Track Severe Weather on mobile